Terminal Aerodrome Forecast
Issued by NWS

Home | Current Version | Previous Version | Text Only | Print | Product List | Glossary On
Versions: 1 2 3 4 5 6 7 8 9 10 11 12
327
FTUS44 KMAF 172320
TAFPEQ
TAF
KPEQ 172320Z 1800/1824 08006KT P6SM SCT150 BKN250
     FM181000 33004KT P6SM SCT100 BKN150
      TEMPO 1811/1815 3SM BR BKN005=

USA.gov is the U.S. government's official web portal to all federal, state and local government web resources and services.